x

Southern Lake Huron (45149) Wave Buoy

11:00pm - Fri 31st Jul 2015 All times are CDT. -5 hours from GMT.

  • Sig Wave height 1.6ft
  • Peak Period 4s
  • Wind
    9mph, 13mph gusts
  • Air Temp 70°f
  • Sea Pressure 1010.5mb
  • Southern Lake Huron
  • Southern Lake Huron

More Historic Weather Station data

Upgrade to MSW Pro to gain access to the past 30 days of data for over 8000 Wavebouys and Weather Stations around the globe.

Join Pro

Comparision Forecast

View Surf forecast
   
Fri 07/31 11:00pm 1.6ft 4s 9 13 mph 1010.5mb 70f
10:00pm 1.6ft 4s 11 13 mph 1010.5mb 71f
9:00pm 1.6ft 4s 13 16 mph 1009.6mb 71f
8:00pm 2ft 4s 7 9 mph 1009.2mb 71f
7:00pm 1.3ft 3s 4
mph
1009mb 71f
6:00pm 1ft 3s 4
mph
1008.5mb 71f
5:00pm 1.3ft 3s 9 11 mph 1008.4mb 74f
4:00pm 1.6ft 4s 4 7 mph 1008.5mb 74f
3:00pm 1.3ft 4s 9
mph
1009mb 74f
2:00pm 1ft 3s 9 11 mph 1009.4mb 73f
1:00pm 1ft 3s 9 11 mph 1010mb 74f
12:00pm 1.3ft 3s 11
mph
1010.6mb 72f
11:00am 1.6ft 4s 9 11 mph 1011.2mb 71f
10:00am 2ft 4s 9 11 mph 1011.5mb 71f
9:00am 2.5ft 4s 13 16 mph 1011.7mb 70f
8:00am 2.5ft 3s 16 18 mph 1011.9mb 69f
7:00am 1.6ft 3s 16 20 mph 1012.1mb 69f
6:00am 1.3ft 5s 13 16 mph 1011.9mb 69f
5:00am 1ft 5s 11 13 mph 1011.9mb 69f
4:00am 1ft 5s 7 9 mph 1012mb 70f
3:00am 1ft 6s 4 7 mph 1012.4mb 69f
2:00am 1.3ft 6s 7 9 mph 1012.5mb 69f
1:00am 1ft 6s 2 4 mph 1012.7mb 69f
12:00am 1ft 3s 2
mph
1013mb 69f
Thu 07/30 11:00pm 1ft 3s 7 9 mph 1012.9mb 70f
10:00pm 1.3ft 4s 7 9 mph 1012.7mb 70f
9:00pm 1.6ft 4s 2 4 mph 1012.2mb 70f
8:00pm 1.6ft 4s 9 11 mph 1011.7mb 71f
7:00pm 1.6ft 4s 11 13 mph 1010.9mb 75f
6:00pm 1.3ft 4s 9
mph
1011.1mb 74f
5:00pm 1.3ft 3s 9 11 mph 1011.4mb 74f
4:00pm 1.3ft 3s 9
mph
1011.6mb 74f
3:00pm 1ft 4s 9
mph
1011.7mb 73f
2:00pm 1ft 3s 9 11 mph 1011.9mb 73f
1:00pm 1.3ft 3s 7
mph
1012.3mb 72f
12:00pm 1.6ft 3s 7 9 mph 1012.5mb 71f
11:00am 2ft 4s 11
mph
1012.5mb 71f
10:00am 2.5ft 4s 11 13 mph 1012.3mb 70f
9:00am 2.5ft 4s 16 18 mph 1012.3mb 69f
8:00am 2.5ft 4s 18 20 mph 1012.2mb 69f
7:00am 2.5ft 4s 16 18 mph 1012.1mb 69f
6:00am 2.5ft 4s 16 18 mph 1011.7mb 69f
5:00am 2.5ft 4s 13 18 mph 1011.3mb 69f
4:00am 2.5ft 4s 16 18 mph 1010.9mb 69f
3:00am 2ft 3s 16 20 mph 1010.6mb 70f
1:00am 1.3ft 3s 11 13 mph 1011.1mb 72f
12:00am 1.3ft 3s 13 16 mph 1011.3mb 73f
Wed 07/29 11:00pm 1.3ft 3s 13 16 mph 1011.2mb 73f
10:00pm 1ft 3s 16 18 mph 1010.9mb 75f
9:00pm 1.3ft 3s 9 11 mph 1010.5mb 73f
8:00pm 1.3ft 3s 11 13 mph 1009.8mb 74f
7:00pm 1.3ft 15s 13 16 mph 1009.8mb 74f
6:00pm 1ft 15s 13 16 mph 1010mb 76f
5:00pm 0.7ft 2s 11 13 mph 1010.3mb 76f
4:00pm 0.3ft 2s 11 13 mph 1010.5mb 77f
3:00pm 0.3ft 2s 9 11 mph 1010.8mb 78f
2:00pm 0.3ft 2s 9
mph
1011.1mb 77f
1:00pm 0.3ft 2s 9
mph
1012mb 76f
12:00pm 0.7ft 15s 7 9 mph 1012.9mb 75f
10:00am 0.7ft 2s 9 11 mph 1013.8mb 73f
9:00am 0.7ft 15s 9
mph
1014.4mb 73f
8:00am 0.7ft 15s 9 11 mph 1014.5mb 73f
7:00am 0.3ft 2s 9
mph
1014.4mb 73f
6:00am 0.3ft 2s 9
mph
1014.4mb 72f
5:00am  -  4s 9
mph
1014.2mb 73f
4:00am  -  4s 4 7 mph 1014.2mb 73f
3:00am  -  4s 4
mph
1014.7mb 73f
2:00am  -  3s 2
mph
1015.3mb 74f
1:00am  -  4s 4
mph
1015.2mb 75f
12:00am  -  4s 4 7 mph 1015.8mb 75f
Tue 07/28 11:00pm  -  2s 2 4 mph 1016.1mb 76f
10:00pm 0.3ft 4s 2 4 mph 1015.4mb 76f
9:00pm  -  4s 2
mph
1015mb 76f
8:00pm  -  4s 2 4 mph 1014.9mb 76f
7:00pm  -  4s 4
mph
1014.8mb 77f
6:00pm  -  4s 4
mph
1015mb 78f
5:00pm 0.3ft 4s 4
mph
1015.3mb 78f
4:00pm 0.3ft 3s 2
mph
1016mb 78f
3:00pm 0.3ft 2s  -  2 mph 1016.2mb 78f
2:00pm 0.3ft 2s 2
mph
1016.6mb 77f
1:00pm 0.3ft 3s 4
mph
1016.8mb 75f
12:00pm 0.3ft 3s 4
mph
1017.2mb 74f
11:00am 0.3ft 2s 4
mph
1017.3mb 73f
10:00am 0.3ft 4s 7
mph
1017.2mb 74f
9:00am 0.3ft 4s 4 7 mph 1017.4mb 73f
8:00am 0.3ft 4s 4 7 mph 1017.6mb 74f
7:00am  -  2s 7 9 mph 1017.4mb 72f
6:00am  -  3s 7 9 mph 1017mb 72f